sensor_id;sensor_type;location;lat;lon;timestamp;P1;durP1;ratioP1;P2;durP2;ratioP2
21337;SDS011;72379;50.880;4.350;2024-02-14T00:01:40;13.33;;;5.70;;
21337;SDS011;72379;50.880;4.350;2024-02-14T00:07:04;11.27;;;5.60;;
21337;SDS011;72379;50.880;4.350;2024-02-14T00:09:30;10.50;;;5.63;;
21337;SDS011;72379;50.880;4.350;2024-02-14T00:14:42;7.63;;;4.23;;
21337;SDS011;72379;50.880;4.350;2024-02-14T00:17:07;12.50;;;5.50;;
21337;SDS011;72379;50.880;4.350;2024-02-14T00:22:12;9.47;;;5.47;;
21337;SDS011;72379;50.880;4.350;2024-02-14T00:24:38;10.67;;;5.47;;
21337;SDS011;72379;50.880;4.350;2024-02-14T00:27:12;10.23;;;5.23;;
21337;SDS011;72379;50.880;4.350;2024-02-14T00:29:39;12.87;;;5.40;;
21337;SDS011;72379;50.880;4.350;2024-02-14T00:32:05;9.43;;;5.03;;
21337;SDS011;72379;50.880;4.350;2024-02-14T00:37:02;8.40;;;4.67;;
21337;SDS011;72379;50.880;4.350;2024-02-14T00:39:28;13.97;;;5.60;;
21337;SDS011;72379;50.880;4.350;2024-02-14T00:44:40;10.57;;;5.37;;
21337;SDS011;72379;50.880;4.350;2024-02-14T00:47:06;9.77;;;4.47;;
21337;SDS011;72379;50.880;4.350;2024-02-14T00:49:40;7.20;;;4.67;;
21337;SDS011;72379;50.880;4.350;2024-02-14T00:52:05;7.67;;;5.07;;
21337;SDS011;72379;50.880;4.350;2024-02-14T00:54:32;11.33;;;4.63;;
21337;SDS011;72379;50.880;4.350;2024-02-14T00:57:01;10.37;;;4.97;;
21337;SDS011;72379;50.880;4.350;2024-02-14T00:59:26;7.40;;;4.30;;
21337;SDS011;72379;50.880;4.350;2024-02-14T01:01:52;9.80;;;4.87;;
21337;SDS011;72379;50.880;4.350;2024-02-14T01:04:18;10.40;;;5.90;;
21337;SDS011;72379;50.880;4.350;2024-02-14T01:06:44;14.63;;;5.03;;
21337;SDS011;72379;50.880;4.350;2024-02-14T01:09:10;12.90;;;5.30;;
21337;SDS011;72379;50.880;4.350;2024-02-14T01:11:36;10.23;;;4.70;;
21337;SDS011;72379;50.880;4.350;2024-02-14T01:14:03;14.17;;;5.23;;
21337;SDS011;72379;50.880;4.350;2024-02-14T01:16:29;7.77;;;4.37;;
21337;SDS011;72379;50.880;4.350;2024-02-14T01:18:55;9.37;;;4.73;;
21337;SDS011;72379;50.880;4.350;2024-02-14T01:21:21;10.00;;;5.17;;
21337;SDS011;72379;50.880;4.350;2024-02-14T01:23:48;8.07;;;4.27;;
21337;SDS011;72379;50.880;4.350;2024-02-14T01:26:14;14.47;;;5.50;;
21337;SDS011;72379;50.880;4.350;2024-02-14T01:28:40;11.33;;;5.00;;
21337;SDS011;72379;50.880;4.350;2024-02-14T01:31:08;8.27;;;5.07;;
21337;SDS011;72379;50.880;4.350;2024-02-14T01:33:37;12.20;;;5.90;;
21337;SDS011;72379;50.880;4.350;2024-02-14T01:36:04;13.47;;;6.10;;
21337;SDS011;72379;50.880;4.350;2024-02-14T01:38:30;14.07;;;6.13;;
21337;SDS011;72379;50.880;4.350;2024-02-14T01:40:58;11.20;;;6.57;;
21337;SDS011;72379;50.880;4.350;2024-02-14T01:43:24;14.57;;;5.37;;
21337;SDS011;72379;50.880;4.350;2024-02-14T01:45:50;12.80;;;6.57;;
21337;SDS011;72379;50.880;4.350;2024-02-14T01:48:16;14.23;;;5.53;;
21337;SDS011;72379;50.880;4.350;2024-02-14T01:50:43;12.70;;;5.47;;
21337;SDS011;72379;50.880;4.350;2024-02-14T01:53:16;12.90;;;6.63;;
21337;SDS011;72379;50.880;4.350;2024-02-14T01:55:43;15.37;;;6.70;;
21337;SDS011;72379;50.880;4.350;2024-02-14T01:58:10;15.87;;;6.70;;
21337;SDS011;72379;50.880;4.350;2024-02-14T02:00:38;12.60;;;5.47;;
21337;SDS011;72379;50.880;4.350;2024-02-14T02:03:04;19.67;;;7.33;;
21337;SDS011;72379;50.880;4.350;2024-02-14T02:05:30;12.20;;;7.30;;
21337;SDS011;72379;50.880;4.350;2024-02-14T02:07:56;14.03;;;5.27;;
21337;SDS011;72379;50.880;4.350;2024-02-14T02:10:24;20.50;;;6.93;;
21337;SDS011;72379;50.880;4.350;2024-02-14T02:12:52;16.37;;;7.73;;
21337;SDS011;72379;50.880;4.350;2024-02-14T02:15:26;16.37;;;6.93;;
21337;SDS011;72379;50.880;4.350;2024-02-14T02:17:53;19.70;;;7.70;;
21337;SDS011;72379;50.880;4.350;2024-02-14T02:20:20;15.40;;;7.27;;
21337;SDS011;72379;50.880;4.350;2024-02-14T02:22:47;16.67;;;7.17;;
21337;SDS011;72379;50.880;4.350;2024-02-14T02:25:13;15.47;;;7.37;;
21337;SDS011;72379;50.880;4.350;2024-02-14T02:27:41;19.90;;;7.50;;
21337;SDS011;72379;50.880;4.350;2024-02-14T02:30:07;17.17;;;6.67;;
21337;SDS011;72379;50.880;4.350;2024-02-14T02:32:35;15.73;;;6.97;;
21337;SDS011;72379;50.880;4.350;2024-02-14T02:35:03;18.37;;;8.00;;
21337;SDS011;72379;50.880;4.350;2024-02-14T02:37:30;17.13;;;7.67;;
21337;SDS011;72379;50.880;4.350;2024-02-14T02:42:34;16.30;;;6.77;;
21337;SDS011;72379;50.880;4.350;2024-02-14T02:45:00;13.60;;;6.53;;
21337;SDS011;72379;50.880;4.350;2024-02-14T02:50:07;16.90;;;7.47;;
21337;SDS011;72379;50.880;4.350;2024-02-14T02:52:33;15.00;;;6.93;;
21337;SDS011;72379;50.880;4.350;2024-02-14T02:55:00;14.50;;;6.90;;
21337;SDS011;72379;50.880;4.350;2024-02-14T02:57:26;17.27;;;7.57;;
21337;SDS011;72379;50.880;4.350;2024-02-14T02:59:53;17.30;;;7.20;;
21337;SDS011;72379;50.880;4.350;2024-02-14T03:02:20;12.23;;;6.53;;
21337;SDS011;72379;50.880;4.350;2024-02-14T03:04:46;16.20;;;6.93;;
21337;SDS011;72379;50.880;4.350;2024-02-14T03:07:22;18.10;;;7.80;;
21337;SDS011;72379;50.880;4.350;2024-02-14T03:09:48;16.37;;;6.10;;
21337;SDS011;72379;50.880;4.350;2024-02-14T03:12:14;18.97;;;7.13;;
21337;SDS011;72379;50.880;4.350;2024-02-14T03:14:45;15.77;;;7.50;;
21337;SDS011;72379;50.880;4.350;2024-02-14T03:17:11;21.40;;;7.57;;
21337;SDS011;72379;50.880;4.350;2024-02-14T03:19:37;14.33;;;7.40;;
21337;SDS011;72379;50.880;4.350;2024-02-14T03:22:05;19.17;;;7.63;;
21337;SDS011;72379;50.880;4.350;2024-02-14T03:24:33;16.57;;;7.17;;
21337;SDS011;72379;50.880;4.350;2024-02-14T03:27:01;20.37;;;8.83;;
21337;SDS011;72379;50.880;4.350;2024-02-14T03:29:29;17.07;;;7.03;;
21337;SDS011;72379;50.880;4.350;2024-02-14T03:31:55;16.83;;;7.13;;
21337;SDS011;72379;50.880;4.350;2024-02-14T03:34:28;15.83;;;6.60;;
21337;SDS011;72379;50.880;4.350;2024-02-14T03:36:55;18.77;;;7.73;;
21337;SDS011;72379;50.880;4.350;2024-02-14T03:39:21;18.97;;;8.07;;
21337;SDS011;72379;50.880;4.350;2024-02-14T03:44:19;17.63;;;7.70;;
21337;SDS011;72379;50.880;4.350;2024-02-14T03:46:46;13.73;;;6.40;;
21337;SDS011;72379;50.880;4.350;2024-02-14T03:49:14;17.73;;;7.70;;
21337;SDS011;72379;50.880;4.350;2024-02-14T03:51:39;18.80;;;8.23;;
21337;SDS011;72379;50.880;4.350;2024-02-14T03:54:05;21.87;;;8.37;;
21337;SDS011;72379;50.880;4.350;2024-02-14T03:56:32;14.73;;;7.87;;
21337;SDS011;72379;50.880;4.350;2024-02-14T03:59:02;19.67;;;8.40;;
21337;SDS011;72379;50.880;4.350;2024-02-14T04:01:30;17.17;;;8.23;;
21337;SDS011;72379;50.880;4.350;2024-02-14T04:03:56;14.60;;;8.03;;
21337;SDS011;72379;50.880;4.350;2024-02-14T04:06:23;15.97;;;7.70;;
21337;SDS011;72379;50.880;4.350;2024-02-14T04:08:49;17.23;;;8.03;;
21337;SDS011;72379;50.880;4.350;2024-02-14T04:11:15;20.00;;;8.43;;
21337;SDS011;72379;50.880;4.350;2024-02-14T04:13:40;15.13;;;8.00;;
21337;SDS011;72379;50.880;4.350;2024-02-14T04:16:06;18.90;;;7.97;;
21337;SDS011;72379;50.880;4.350;2024-02-14T04:18:33;18.80;;;8.57;;
21337;SDS011;72379;50.880;4.350;2024-02-14T04:20:59;22.80;;;9.70;;
21337;SDS011;72379;50.880;4.350;2024-02-14T04:23:25;28.30;;;9.23;;
21337;SDS011;72379;50.880;4.350;2024-02-14T04:25:51;23.33;;;9.67;;
21337;SDS011;72379;50.880;4.350;2024-02-14T04:30:46;19.97;;;9.73;;
21337;SDS011;72379;50.880;4.350;2024-02-14T04:33:13;22.23;;;9.93;;
21337;SDS011;72379;50.880;4.350;2024-02-14T04:35:39;26.43;;;10.07;;
21337;SDS011;72379;50.880;4.350;2024-02-14T04:38:05;23.87;;;9.57;;
21337;SDS011;72379;50.880;4.350;2024-02-14T04:40:33;20.27;;;8.63;;
21337;SDS011;72379;50.880;4.350;2024-02-14T04:42:59;21.13;;;9.83;;
21337;SDS011;72379;50.880;4.350;2024-02-14T04:45:25;27.50;;;10.40;;
21337;SDS011;72379;50.880;4.350;2024-02-14T04:47:51;20.63;;;9.40;;
21337;SDS011;72379;50.880;4.350;2024-02-14T04:50:17;20.00;;;7.80;;
21337;SDS011;72379;50.880;4.350;2024-02-14T04:52:44;22.00;;;9.57;;
21337;SDS011;72379;50.880;4.350;2024-02-14T04:55:10;23.63;;;10.07;;
21337;SDS011;72379;50.880;4.350;2024-02-14T04:57:35;24.30;;;9.93;;
21337;SDS011;72379;50.880;4.350;2024-02-14T05:00:02;24.53;;;10.40;;
21337;SDS011;72379;50.880;4.350;2024-02-14T05:02:30;28.37;;;10.60;;
21337;SDS011;72379;50.880;4.350;2024-02-14T05:04:56;31.63;;;11.33;;
21337;SDS011;72379;50.880;4.350;2024-02-14T05:07:22;25.27;;;10.57;;
21337;SDS011;72379;50.880;4.350;2024-02-14T05:09:48;22.60;;;10.80;;
21337;SDS011;72379;50.880;4.350;2024-02-14T05:12:16;24.77;;;11.27;;
21337;SDS011;72379;50.880;4.350;2024-02-14T05:14:42;26.80;;;10.77;;
21337;SDS011;72379;50.880;4.350;2024-02-14T05:17:08;23.07;;;10.63;;
21337;SDS011;72379;50.880;4.350;2024-02-14T05:19:34;26.80;;;11.27;;
21337;SDS011;72379;50.880;4.350;2024-02-14T05:21:59;22.27;;;11.20;;
21337;SDS011;72379;50.880;4.350;2024-02-14T05:24:25;27.53;;;11.33;;
21337;SDS011;72379;50.880;4.350;2024-02-14T05:26:52;26.33;;;10.60;;
21337;SDS011;72379;50.880;4.350;2024-02-14T05:29:18;27.87;;;11.87;;
21337;SDS011;72379;50.880;4.350;2024-02-14T05:31:46;24.60;;;11.40;;
21337;SDS011;72379;50.880;4.350;2024-02-14T05:34:13;23.40;;;11.03;;
21337;SDS011;72379;50.880;4.350;2024-02-14T05:36:39;25.47;;;11.60;;
21337;SDS011;72379;50.880;4.350;2024-02-14T05:39:07;21.83;;;10.50;;
21337;SDS011;72379;50.880;4.350;2024-02-14T05:41:33;24.63;;;10.53;;
21337;SDS011;72379;50.880;4.350;2024-02-14T05:43:59;22.77;;;10.43;;
21337;SDS011;72379;50.880;4.350;2024-02-14T05:46:25;26.20;;;10.93;;
21337;SDS011;72379;50.880;4.350;2024-02-14T05:48:52;23.07;;;10.50;;
21337;SDS011;72379;50.880;4.350;2024-02-14T05:51:18;24.13;;;10.67;;
21337;SDS011;72379;50.880;4.350;2024-02-14T05:53:44;21.90;;;11.03;;
21337;SDS011;72379;50.880;4.350;2024-02-14T05:56:10;24.97;;;10.80;;
21337;SDS011;72379;50.880;4.350;2024-02-14T05:58:36;30.97;;;11.37;;
21337;SDS011;72379;50.880;4.350;2024-02-14T06:01:02;25.23;;;10.33;;
21337;SDS011;72379;50.880;4.350;2024-02-14T06:03:28;29.40;;;11.73;;
21337;SDS011;72379;50.880;4.350;2024-02-14T06:05:54;23.57;;;10.03;;
21337;SDS011;72379;50.880;4.350;2024-02-14T06:08:20;30.57;;;11.33;;
21337;SDS011;72379;50.880;4.350;2024-02-14T06:10:48;27.33;;;11.00;;
21337;SDS011;72379;50.880;4.350;2024-02-14T06:13:14;20.63;;;9.53;;
21337;SDS011;72379;50.880;4.350;2024-02-14T06:15:40;24.50;;;11.20;;
21337;SDS011;72379;50.880;4.350;2024-02-14T06:18:06;26.83;;;10.73;;
21337;SDS011;72379;50.880;4.350;2024-02-14T06:20:32;21.20;;;10.60;;
21337;SDS011;72379;50.880;4.350;2024-02-14T06:22:58;24.70;;;9.87;;
21337;SDS011;72379;50.880;4.350;2024-02-14T06:25:24;19.97;;;8.60;;
21337;SDS011;72379;50.880;4.350;2024-02-14T06:27:52;30.10;;;11.23;;
21337;SDS011;72379;50.880;4.350;2024-02-14T06:30:19;23.17;;;9.47;;
21337;SDS011;72379;50.880;4.350;2024-02-14T06:32:45;26.00;;;11.17;;
21337;SDS011;72379;50.880;4.350;2024-02-14T06:35:11;20.73;;;9.93;;
21337;SDS011;72379;50.880;4.350;2024-02-14T06:37:37;23.87;;;10.13;;
21337;SDS011;72379;50.880;4.350;2024-02-14T06:40:03;27.50;;;11.53;;
21337;SDS011;72379;50.880;4.350;2024-02-14T06:42:29;20.63;;;9.20;;
21337;SDS011;72379;50.880;4.350;2024-02-14T06:44:55;25.30;;;10.73;;
21337;SDS011;72379;50.880;4.350;2024-02-14T06:47:20;24.70;;;8.20;;
21337;SDS011;72379;50.880;4.350;2024-02-14T06:49:47;23.13;;;10.03;;
21337;SDS011;72379;50.880;4.350;2024-02-14T06:52:14;25.33;;;8.13;;
21337;SDS011;72379;50.880;4.350;2024-02-14T06:54:39;21.17;;;9.20;;
21337;SDS011;72379;50.880;4.350;2024-02-14T06:57:05;20.07;;;8.07;;
21337;SDS011;72379;50.880;4.350;2024-02-14T06:59:32;19.77;;;9.13;;
21337;SDS011;72379;50.880;4.350;2024-02-14T07:01:58;23.53;;;10.60;;
21337;SDS011;72379;50.880;4.350;2024-02-14T07:04:24;23.40;;;10.27;;
21337;SDS011;72379;50.880;4.350;2024-02-14T07:06:51;25.53;;;10.70;;
21337;SDS011;72379;50.880;4.350;2024-02-14T07:09:20;26.57;;;10.33;;
21337;SDS011;72379;50.880;4.350;2024-02-14T07:11:46;33.77;;;11.77;;
21337;SDS011;72379;50.880;4.350;2024-02-14T07:14:12;27.67;;;10.83;;
21337;SDS011;72379;50.880;4.350;2024-02-14T07:16:38;28.47;;;12.00;;
21337;SDS011;72379;50.880;4.350;2024-02-14T07:19:03;23.97;;;10.27;;
21337;SDS011;72379;50.880;4.350;2024-02-14T07:21:29;24.73;;;9.20;;
21337;SDS011;72379;50.880;4.350;2024-02-14T07:23:55;27.13;;;10.13;;
21337;SDS011;72379;50.880;4.350;2024-02-14T07:26:22;29.23;;;11.73;;
21337;SDS011;72379;50.880;4.350;2024-02-14T07:28:47;22.63;;;9.53;;
21337;SDS011;72379;50.880;4.350;2024-02-14T07:31:13;21.67;;;10.90;;
21337;SDS011;72379;50.880;4.350;2024-02-14T07:33:39;30.33;;;11.73;;
21337;SDS011;72379;50.880;4.350;2024-02-14T07:36:06;24.83;;;10.27;;
21337;SDS011;72379;50.880;4.350;2024-02-14T07:38:31;26.53;;;9.57;;
21337;SDS011;72379;50.880;4.350;2024-02-14T07:40:57;20.70;;;8.73;;
21337;SDS011;72379;50.880;4.350;2024-02-14T07:43:23;27.07;;;10.30;;
21337;SDS011;72379;50.880;4.350;2024-02-14T07:45:50;22.60;;;10.20;;
21337;SDS011;72379;50.880;4.350;2024-02-14T07:48:15;29.27;;;10.97;;
21337;SDS011;72379;50.880;4.350;2024-02-14T07:50:41;28.00;;;10.00;;
21337;SDS011;72379;50.880;4.350;2024-02-14T07:53:07;24.57;;;9.70;;
21337;SDS011;72379;50.880;4.350;2024-02-14T07:55:33;21.70;;;9.67;;
21337;SDS011;72379;50.880;4.350;2024-02-14T07:57:59;23.80;;;9.30;;
21337;SDS011;72379;50.880;4.350;2024-02-14T08:00:25;18.50;;;7.63;;
21337;SDS011;72379;50.880;4.350;2024-02-14T08:02:51;22.40;;;9.97;;
21337;SDS011;72379;50.880;4.350;2024-02-14T08:05:17;26.07;;;9.83;;
21337;SDS011;72379;50.880;4.350;2024-02-14T08:07:47;21.47;;;9.57;;
21337;SDS011;72379;50.880;4.350;2024-02-14T08:10:13;30.67;;;9.03;;
21337;SDS011;72379;50.880;4.350;2024-02-14T08:12:39;24.07;;;9.97;;
21337;SDS011;72379;50.880;4.350;2024-02-14T08:15:04;28.37;;;10.13;;
21337;SDS011;72379;50.880;4.350;2024-02-14T08:17:32;18.53;;;8.57;;
21337;SDS011;72379;50.880;4.350;2024-02-14T08:19:58;22.13;;;10.27;;
21337;SDS011;72379;50.880;4.350;2024-02-14T08:22:26;29.43;;;11.73;;
21337;SDS011;72379;50.880;4.350;2024-02-14T08:24:52;30.67;;;10.73;;
21337;SDS011;72379;50.880;4.350;2024-02-14T08:27:18;28.43;;;10.40;;
21337;SDS011;72379;50.880;4.350;2024-02-14T08:29:44;27.07;;;10.97;;
21337;SDS011;72379;50.880;4.350;2024-02-14T08:32:09;25.50;;;10.43;;
21337;SDS011;72379;50.880;4.350;2024-02-14T08:34:36;24.90;;;10.97;;
21337;SDS011;72379;50.880;4.350;2024-02-14T08:37:02;26.10;;;10.80;;
21337;SDS011;72379;50.880;4.350;2024-02-14T08:39:28;29.00;;;10.93;;
21337;SDS011;72379;50.880;4.350;2024-02-14T08:41:54;26.30;;;11.70;;
21337;SDS011;72379;50.880;4.350;2024-02-14T08:44:20;22.90;;;10.50;;
21337;SDS011;72379;50.880;4.350;2024-02-14T08:46:46;24.37;;;11.50;;
21337;SDS011;72379;50.880;4.350;2024-02-14T08:49:14;19.37;;;8.80;;
21337;SDS011;72379;50.880;4.350;2024-02-14T08:51:49;23.03;;;11.37;;
21337;SDS011;72379;50.880;4.350;2024-02-14T08:54:24;25.37;;;11.07;;
21337;SDS011;72379;50.880;4.350;2024-02-14T08:56:50;27.50;;;10.17;;
21337;SDS011;72379;50.880;4.350;2024-02-14T08:59:20;23.13;;;11.00;;
21337;SDS011;72379;50.880;4.350;2024-02-14T09:01:46;21.77;;;10.47;;
21337;SDS011;72379;50.880;4.350;2024-02-14T09:04:13;21.97;;;10.83;;
21337;SDS011;72379;50.880;4.350;2024-02-14T09:06:39;21.97;;;10.90;;
21337;SDS011;72379;50.880;4.350;2024-02-14T09:09:06;23.33;;;10.67;;
21337;SDS011;72379;50.880;4.350;2024-02-14T09:11:35;21.23;;;10.00;;
21337;SDS011;72379;50.880;4.350;2024-02-14T09:14:01;25.27;;;11.03;;
21337;SDS011;72379;50.880;4.350;2024-02-14T09:16:32;24.40;;;11.13;;
21337;SDS011;72379;50.880;4.350;2024-02-14T09:18:58;21.87;;;10.77;;
21337;SDS011;72379;50.880;4.350;2024-02-14T09:21:26;23.70;;;11.07;;
21337;SDS011;72379;50.880;4.350;2024-02-14T09:23:52;20.90;;;11.20;;
21337;SDS011;72379;50.880;4.350;2024-02-14T09:26:18;20.67;;;10.30;;
21337;SDS011;72379;50.880;4.350;2024-02-14T09:28:44;23.87;;;10.63;;
21337;SDS011;72379;50.880;4.350;2024-02-14T09:31:10;23.47;;;11.40;;
21337;SDS011;72379;50.880;4.350;2024-02-14T09:33:37;24.77;;;11.47;;
21337;SDS011;72379;50.880;4.350;2024-02-14T09:36:04;22.37;;;11.33;;
21337;SDS011;72379;50.880;4.350;2024-02-14T09:38:31;22.17;;;11.33;;
21337;SDS011;72379;50.880;4.350;2024-02-14T09:41:04;22.83;;;10.90;;
21337;SDS011;72379;50.880;4.350;2024-02-14T09:43:40;24.87;;;11.77;;
21337;SDS011;72379;50.880;4.350;2024-02-14T09:46:09;27.83;;;12.63;;
21337;SDS011;72379;50.880;4.350;2024-02-14T09:48:38;23.23;;;11.37;;
21337;SDS011;72379;50.880;4.350;2024-02-14T09:51:05;23.37;;;11.00;;
21337;SDS011;72379;50.880;4.350;2024-02-14T09:53:32;22.03;;;11.33;;
21337;SDS011;72379;50.880;4.350;2024-02-14T09:55:58;26.03;;;11.70;;
21337;SDS011;72379;50.880;4.350;2024-02-14T09:58:26;23.93;;;10.83;;
21337;SDS011;72379;50.880;4.350;2024-02-14T10:00:52;20.90;;;11.97;;
21337;SDS011;72379;50.880;4.350;2024-02-14T10:03:18;24.50;;;11.27;;
21337;SDS011;72379;50.880;4.350;2024-02-14T10:05:44;24.73;;;12.00;;
21337;SDS011;72379;50.880;4.350;2024-02-14T10:08:10;28.40;;;10.73;;
21337;SDS011;72379;50.880;4.350;2024-02-14T10:10:37;24.47;;;10.97;;
21337;SDS011;72379;50.880;4.350;2024-02-14T10:13:03;23.70;;;11.37;;
21337;SDS011;72379;50.880;4.350;2024-02-14T10:15:30;25.47;;;11.60;;
21337;SDS011;72379;50.880;4.350;2024-02-14T10:17:59;22.27;;;11.27;;
21337;SDS011;72379;50.880;4.350;2024-02-14T10:20:25;23.60;;;10.30;;
21337;SDS011;72379;50.880;4.350;2024-02-14T10:22:52;27.87;;;11.10;;
21337;SDS011;72379;50.880;4.350;2024-02-14T10:25:18;25.73;;;10.97;;
21337;SDS011;72379;50.880;4.350;2024-02-14T10:27:44;27.83;;;11.07;;
21337;SDS011;72379;50.880;4.350;2024-02-14T10:30:12;20.63;;;8.87;;
21337;SDS011;72379;50.880;4.350;2024-02-14T10:32:39;19.03;;;9.33;;
21337;SDS011;72379;50.880;4.350;2024-02-14T10:35:07;21.37;;;10.00;;
21337;SDS011;72379;50.880;4.350;2024-02-14T10:37:34;22.00;;;9.23;;
21337;SDS011;72379;50.880;4.350;2024-02-14T10:40:03;22.17;;;9.33;;
21337;SDS011;72379;50.880;4.350;2024-02-14T10:42:30;24.67;;;9.70;;
21337;SDS011;72379;50.880;4.350;2024-02-14T10:44:56;23.17;;;9.03;;
21337;SDS011;72379;50.880;4.350;2024-02-14T10:47:23;23.53;;;9.83;;
21337;SDS011;72379;50.880;4.350;2024-02-14T10:49:52;18.30;;;9.33;;
21337;SDS011;72379;50.880;4.350;2024-02-14T10:52:22;18.40;;;7.53;;
21337;SDS011;72379;50.880;4.350;2024-02-14T10:54:52;19.80;;;9.60;;
21337;SDS011;72379;50.880;4.350;2024-02-14T10:57:24;19.83;;;8.37;;
21337;SDS011;72379;50.880;4.350;2024-02-14T10:59:50;22.63;;;10.00;;
21337;SDS011;72379;50.880;4.350;2024-02-14T11:02:18;18.10;;;8.57;;
21337;SDS011;72379;50.880;4.350;2024-02-14T11:04:45;15.13;;;8.20;;
21337;SDS011;72379;50.880;4.350;2024-02-14T11:07:11;19.30;;;8.10;;
21337;SDS011;72379;50.880;4.350;2024-02-14T11:09:38;17.13;;;8.37;;
21337;SDS011;72379;50.880;4.350;2024-02-14T11:12:08;16.90;;;8.50;;
21337;SDS011;72379;50.880;4.350;2024-02-14T11:14:36;15.93;;;6.77;;
21337;SDS011;72379;50.880;4.350;2024-02-14T11:17:13;12.47;;;6.90;;
21337;SDS011;72379;50.880;4.350;2024-02-14T11:19:38;12.73;;;7.07;;
21337;SDS011;72379;50.880;4.350;2024-02-14T11:22:12;14.63;;;6.93;;
21337;SDS011;72379;50.880;4.350;2024-02-14T11:24:38;11.53;;;6.83;;
21337;SDS011;72379;50.880;4.350;2024-02-14T11:27:09;13.70;;;7.33;;
21337;SDS011;72379;50.880;4.350;2024-02-14T11:29:38;17.37;;;7.37;;
21337;SDS011;72379;50.880;4.350;2024-02-14T11:32:17;13.73;;;6.50;;
21337;SDS011;72379;50.880;4.350;2024-02-14T11:34:43;17.07;;;7.63;;
21337;SDS011;72379;50.880;4.350;2024-02-14T11:37:26;11.77;;;5.73;;
21337;SDS011;72379;50.880;4.350;2024-02-14T11:39:53;14.77;;;7.60;;
21337;SDS011;72379;50.880;4.350;2024-02-14T11:42:22;14.57;;;7.20;;
21337;SDS011;72379;50.880;4.350;2024-02-14T11:44:49;11.17;;;6.40;;
21337;SDS011;72379;50.880;4.350;2024-02-14T11:47:15;12.23;;;7.33;;
21337;SDS011;72379;50.880;4.350;2024-02-14T11:49:41;12.17;;;6.73;;
21337;SDS011;72379;50.880;4.350;2024-02-14T11:52:13;13.43;;;7.10;;
21337;SDS011;72379;50.880;4.350;2024-02-14T11:54:39;15.43;;;7.17;;
21337;SDS011;72379;50.880;4.350;2024-02-14T11:57:05;10.07;;;6.27;;
21337;SDS011;72379;50.880;4.350;2024-02-14T11:59:34;14.57;;;6.93;;
21337;SDS011;72379;50.880;4.350;2024-02-14T12:02:00;12.13;;;6.67;;
21337;SDS011;72379;50.880;4.350;2024-02-14T12:04:27;15.20;;;6.97;;
21337;SDS011;72379;50.880;4.350;2024-02-14T12:06:54;13.57;;;7.07;;
21337;SDS011;72379;50.880;4.350;2024-02-14T12:09:20;14.87;;;7.43;;
21337;SDS011;72379;50.880;4.350;2024-02-14T12:11:46;12.03;;;6.37;;
21337;SDS011;72379;50.880;4.350;2024-02-14T12:14:12;11.47;;;5.53;;
21337;SDS011;72379;50.880;4.350;2024-02-14T12:16:39;15.10;;;7.00;;
21337;SDS011;72379;50.880;4.350;2024-02-14T12:19:08;12.50;;;6.80;;
21337;SDS011;72379;50.880;4.350;2024-02-14T12:21:40;12.97;;;7.20;;
21337;SDS011;72379;50.880;4.350;2024-02-14T12:24:12;11.23;;;6.53;;
21337;SDS011;72379;50.880;4.350;2024-02-14T12:26:40;11.13;;;6.50;;
21337;SDS011;72379;50.880;4.350;2024-02-14T12:29:06;13.73;;;6.47;;
21337;SDS011;72379;50.880;4.350;2024-02-14T12:31:33;13.30;;;6.43;;
21337;SDS011;72379;50.880;4.350;2024-02-14T12:34:00;14.97;;;3.80;;
21337;SDS011;72379;50.880;4.350;2024-02-14T12:36:30;11.13;;;5.60;;
21337;SDS011;72379;50.880;4.350;2024-02-14T12:38:58;11.17;;;6.33;;
21337;SDS011;72379;50.880;4.350;2024-02-14T12:41:30;13.07;;;6.60;;
21337;SDS011;72379;50.880;4.350;2024-02-14T12:43:56;13.07;;;7.13;;
21337;SDS011;72379;50.880;4.350;2024-02-14T12:46:23;8.07;;;5.80;;
21337;SDS011;72379;50.880;4.350;2024-02-14T12:48:49;10.17;;;6.67;;
21337;SDS011;72379;50.880;4.350;2024-02-14T12:51:15;12.93;;;6.53;;
21337;SDS011;72379;50.880;4.350;2024-02-14T12:53:41;15.57;;;7.67;;
21337;SDS011;72379;50.880;4.350;2024-02-14T12:56:09;15.53;;;6.20;;
21337;SDS011;72379;50.880;4.350;2024-02-14T12:58:35;9.60;;;6.30;;
21337;SDS011;72379;50.880;4.350;2024-02-14T13:01:02;13.87;;;7.47;;
21337;SDS011;72379;50.880;4.350;2024-02-14T13:03:31;14.53;;;6.80;;
21337;SDS011;72379;50.880;4.350;2024-02-14T13:06:00;13.00;;;6.50;;
21337;SDS011;72379;50.880;4.350;2024-02-14T13:08:28;10.47;;;5.93;;
21337;SDS011;72379;50.880;4.350;2024-02-14T13:10:53;14.73;;;6.53;;
21337;SDS011;72379;50.880;4.350;2024-02-14T13:13:19;14.77;;;7.23;;
21337;SDS011;72379;50.880;4.350;2024-02-14T13:15:46;11.87;;;6.37;;
21337;SDS011;72379;50.880;4.350;2024-02-14T13:18:12;12.40;;;6.50;;
21337;SDS011;72379;50.880;4.350;2024-02-14T13:20:38;9.63;;;5.60;;
21337;SDS011;72379;50.880;4.350;2024-02-14T13:23:05;15.03;;;6.17;;
21337;SDS011;72379;50.880;4.350;2024-02-14T13:25:34;11.70;;;6.30;;
21337;SDS011;72379;50.880;4.350;2024-02-14T13:28:01;12.67;;;6.37;;
21337;SDS011;72379;50.880;4.350;2024-02-14T13:30:28;14.00;;;6.70;;
21337;SDS011;72379;50.880;4.350;2024-02-14T13:32:55;17.43;;;6.60;;
21337;SDS011;72379;50.880;4.350;2024-02-14T13:35:21;11.73;;;6.03;;
21337;SDS011;72379;50.880;4.350;2024-02-14T13:37:55;15.67;;;7.53;;
21337;SDS011;72379;50.880;4.350;2024-02-14T13:40:21;14.13;;;6.80;;
21337;SDS011;72379;50.880;4.350;2024-02-14T13:42:47;16.10;;;6.90;;
21337;SDS011;72379;50.880;4.350;2024-02-14T13:45:13;9.57;;;5.77;;
21337;SDS011;72379;50.880;4.350;2024-02-14T13:47:41;14.50;;;5.83;;
21337;SDS011;72379;50.880;4.350;2024-02-14T13:50:08;10.17;;;5.10;;
21337;SDS011;72379;50.880;4.350;2024-02-14T13:52:36;15.33;;;6.43;;
21337;SDS011;72379;50.880;4.350;2024-02-14T13:55:02;11.03;;;5.33;;
21337;SDS011;72379;50.880;4.350;2024-02-14T13:57:30;12.93;;;5.90;;
21337;SDS011;72379;50.880;4.350;2024-02-14T13:59:57;11.13;;;5.70;;
21337;SDS011;72379;50.880;4.350;2024-02-14T14:02:23;10.93;;;6.00;;
21337;SDS011;72379;50.880;4.350;2024-02-14T14:04:49;9.17;;;4.87;;
21337;SDS011;72379;50.880;4.350;2024-02-14T14:07:17;8.20;;;5.10;;
21337;SDS011;72379;50.880;4.350;2024-02-14T14:09:44;10.27;;;5.03;;
21337;SDS011;72379;50.880;4.350;2024-02-14T14:12:10;8.57;;;5.27;;
21337;SDS011;72379;50.880;4.350;2024-02-14T14:14:36;10.93;;;6.80;;
21337;SDS011;72379;50.880;4.350;2024-02-14T14:17:02;13.97;;;6.63;;
21337;SDS011;72379;50.880;4.350;2024-02-14T14:19:28;13.53;;;5.40;;
21337;SDS011;72379;50.880;4.350;2024-02-14T14:21:54;14.23;;;5.73;;
21337;SDS011;72379;50.880;4.350;2024-02-14T14:24:21;13.43;;;4.90;;
21337;SDS011;72379;50.880;4.350;2024-02-14T14:26:47;10.57;;;5.10;;
21337;SDS011;72379;50.880;4.350;2024-02-14T14:29:15;15.17;;;5.73;;
21337;SDS011;72379;50.880;4.350;2024-02-14T14:31:41;14.53;;;5.57;;
21337;SDS011;72379;50.880;4.350;2024-02-14T14:34:08;8.70;;;5.13;;
21337;SDS011;72379;50.880;4.350;2024-02-14T14:36:34;11.17;;;4.67;;
21337;SDS011;72379;50.880;4.350;2024-02-14T14:39:02;10.00;;;5.03;;
21337;SDS011;72379;50.880;4.350;2024-02-14T14:41:28;8.77;;;5.23;;
21337;SDS011;72379;50.880;4.350;2024-02-14T14:43:54;7.97;;;5.47;;
21337;SDS011;72379;50.880;4.350;2024-02-14T14:46:20;9.83;;;5.33;;
21337;SDS011;72379;50.880;4.350;2024-02-14T14:48:46;10.40;;;5.57;;
21337;SDS011;72379;50.880;4.350;2024-02-14T14:51:12;9.20;;;4.80;;
21337;SDS011;72379;50.880;4.350;2024-02-14T14:53:38;10.87;;;5.33;;